Time;durP1;ratioP1;P1;durP2;ratioP2;P2;SDS_P1;SDS_P2;PMS_P1;PMS_P2;Temp;Humidity;BMP_temperature;BMP_pressure;BME280_temperature;BME280_humidity;BME280_pressure;Samples;Min_cycle;Max_cycle;Signal;HPM_P1;HPM_P2
2022/09/18 00:00:53;;;;;;;;;;;;;;;8.78;81.25;95308.22;5085712;28;20009;-77
2022/09/18 00:03:18;;;;;;;;;;;;;;;9.20;80.95;95296.66;5094003;28;20020;-76
2022/09/18 00:05:43;;;;;;;;;;;;;;;8.94;81.16;95300.81;5093526;28;20054;-76
2022/09/18 00:08:09;;;;;;;;;;;;;;;8.91;81.61;95309.38;5096334;28;20016;-77
2022/09/18 00:10:45;;;;;;;;;;;;;;;9.18;80.54;95303.38;5110337;28;20015;-77
2022/09/18 00:13:11;;;;;;;;;;;;;;;8.94;81.00;95303.47;5111425;28;20008;-77
2022/09/18 00:15:36;;;;;;;;;;;;;;;9.09;80.07;95304.00;5086901;28;20539;-77
2022/09/18 00:18:02;;;;;;;;;;;;;;;9.32;80.16;95309.50;5091974;28;22119;-77
2022/09/18 00:20:27;;;;;;;;;;;;;;;9.23;79.32;95296.09;5111435;28;20078;-74
2022/09/18 00:22:52;;;;;;;;;;;;;;;9.09;80.48;95300.56;5111087;28;20434;-76
2022/09/18 00:25:18;;;;;;;;;;;;;;;8.81;81.65;95313.75;5093423;28;20438;-76
2022/09/18 00:27:43;;;;;;;;;;;;;;;8.77;81.08;95315.38;5093442;28;20067;-77
2022/09/18 00:30:08;;;;;;;;;;;;;;;9.09;81.14;95311.97;5107019;28;20062;-77
2022/09/18 00:32:34;;;;;;;;;;;;;;;8.83;80.59;95316.09;5111553;28;20066;-76
2022/09/18 00:34:59;;;;;;;;;;;;;;;9.09;80.46;95314.63;5093159;28;20013;-76
2022/09/18 00:37:24;;;;;;;;;;;;;;;9.05;80.65;95310.19;5106885;28;20015;-76
2022/09/18 00:39:49;;;;;;;;;;;;;;;9.34;79.90;95313.44;5090749;28;20011;-78
2022/09/18 00:42:18;;;;;;;;;;;;;;;8.82;81.19;95315.31;5078862;28;20376;-76
2022/09/18 00:44:44;;;;;;;;;;;;;;;8.66;81.52;95319.25;5088484;28;20020;-77
2022/09/18 00:47:09;;;;;;;;;;;;;;;8.88;81.19;95317.88;5088467;28;20016;-76
2022/09/18 00:49:39;;;;;;;;;;;;;;;8.92;80.23;95313.59;5083539;28;20008;-76
2022/09/18 00:52:05;;;;;;;;;;;;;;;9.07;79.93;95308.03;5093571;28;20020;-77
2022/09/18 00:54:38;;;;;;;;;;;;;;;9.06;79.40;95311.78;5110669;28;20061;-77
2022/09/18 00:57:06;;;;;;;;;;;;;;;8.75;80.06;95314.09;5092240;28;20048;-77
2022/09/18 00:59:33;;;;;;;;;;;;;;;9.07;79.39;95308.84;5092042;28;20048;-79
2022/09/18 01:01:58;;;;;;;;;;;;;;;9.45;78.19;95314.03;5092075;28;20443;-77
2022/09/18 01:04:24;;;;;;;;;;;;;;;9.67;76.31;95309.94;5111656;28;20040;-76
2022/09/18 01:07:12;;;;;;;;;;;;;;;9.78;77.08;95314.78;5092511;28;20014;-79
2022/09/18 01:09:51;;;;;;;;;;;;;;;9.55;77.55;95318.38;5093355;28;20009;-78
2022/09/18 01:12:29;;;;;;;;;;;;;;;9.85;76.33;95312.53;5088636;28;20039;-77
2022/09/18 01:15:01;;;;;;;;;;;;;;;10.11;75.72;95318.13;5092738;28;20375;-77
2022/09/18 01:17:45;;;;;;;;;;;;;;;10.15;75.86;95321.00;5092782;28;20016;-76
2022/09/18 01:20:28;;;;;;;;;;;;;;;10.20;75.78;95328.88;5109870;28;20493;-77
2022/09/18 01:23:05;;;;;;;;;;;;;;;9.37;76.32;95333.31;5093235;28;20015;-77
2022/09/18 01:25:49;;;;;;;;;;;;;;;9.53;78.12;95334.63;5092147;28;20107;-76
2022/09/18 01:28:26;;;;;;;;;;;;;;;9.94;77.00;95327.78;5090106;28;20013;-78
2022/09/18 01:30:55;;;;;;;;;;;;;;;9.81;76.87;95334.66;5082668;28;20433;-76
2022/09/18 01:33:28;;;;;;;;;;;;;;;9.02;79.66;95340.75;5092722;28;20020;-76
2022/09/18 01:35:57;;;;;;;;;;;;;;;9.70;76.68;95336.72;5076444;28;20107;-76
2022/09/18 01:38:31;;;;;;;;;;;;;;;9.53;77.92;95334.63;5095712;28;20468;-77
2022/09/18 01:41:00;;;;;;;;;;;;;;;9.11;78.55;95332.94;5094520;28;20004;-77
2022/09/18 01:43:28;;;;;;;;;;;;;;;9.45;78.63;95323.88;5077046;28;20036;-77
2022/09/18 01:45:55;;;;;;;;;;;;;;;9.56;79.66;95319.97;5095107;28;20012;-78
2022/09/18 01:48:27;;;;;;;;;;;;;;;9.43;78.97;95329.50;5095505;28;20031;-76
2022/09/18 01:51:05;;;;;;;;;;;;;;;9.47;78.75;95327.00;5092321;28;20067;-77
2022/09/18 01:53:35;;;;;;;;;;;;;;;9.64;78.47;95322.75;5076368;28;20385;-76
2022/09/18 01:56:12;;;;;;;;;;;;;;;9.80;77.89;95323.25;5104317;28;20166;-77
2022/09/18 01:58:37;;;;;;;;;;;;;;;10.24;77.41;95315.81;5095311;28;20365;-77
2022/09/18 02:01:06;;;;;;;;;;;;;;;10.25;76.74;95318.16;5113424;28;20090;-77
2022/09/18 02:03:38;;;;;;;;;;;;;;;10.83;75.33;95314.00;5096422;28;20044;-77
2022/09/18 02:06:06;;;;;;;;;;;;;;;10.75;75.38;95317.38;5095037;28;20008;-77
2022/09/18 02:08:31;;;;;;;;;;;;;;;10.43;75.56;95315.66;5094729;28;20008;-76
2022/09/18 02:11:02;;;;;;;;;;;;;;;10.45;75.79;95313.53;5095514;28;20426;-76
2022/09/18 02:13:30;;;;;;;;;;;;;;;10.06;78.19;95318.22;5093344;28;20111;-77
2022/09/18 02:15:59;;;;;;;;;;;;;;;10.67;75.27;95310.91;5107307;28;20013;-76
2022/09/18 02:18:29;;;;;;;;;;;;;;;10.14;75.87;95308.78;5075411;28;20321;-77
2022/09/18 02:20:56;;;;;;;;;;;;;;;9.92;77.65;95314.00;5076697;28;20075;-76
2022/09/18 02:23:22;;;;;;;;;;;;;;;10.37;77.00;95304.34;5106678;28;20056;-77
2022/09/18 02:25:51;;;;;;;;;;;;;;;9.99;77.72;95303.78;5096106;28;20017;-76
2022/09/18 02:28:18;;;;;;;;;;;;;;;10.33;76.25;95296.19;5112759;28;20059;-76
2022/09/18 02:30:44;;;;;;;;;;;;;;;10.14;77.06;95296.28;5111396;28;20012;-77
2022/09/18 02:33:28;;;;;;;;;;;;;;;10.15;76.61;95308.50;5095101;28;20013;-76
2022/09/18 02:36:12;;;;;;;;;;;;;;;10.51;75.99;95305.13;5112816;28;20044;-77
2022/09/18 02:38:53;;;;;;;;;;;;;;;9.69;78.57;95308.59;5094284;28;20095;-77
2022/09/18 02:41:37;;;;;;;;;;;;;;;9.73;78.39;95308.78;5093779;28;20013;-76
2022/09/18 02:44:08;;;;;;;;;;;;;;;9.82;78.94;95304.34;5091268;28;20017;-76
2022/09/18 02:46:41;;;;;;;;;;;;;;;9.75;78.23;95299.44;5093743;28;20061;-76
2022/09/18 02:49:25;;;;;;;;;;;;;;;10.48;76.90;95297.72;5093965;28;20019;-75
2022/09/18 02:51:50;;;;;;;;;;;;;;;10.04;76.66;95290.41;5095344;28;20012;-77
2022/09/18 02:54:35;;;;;;;;;;;;;;;10.34;76.13;95289.03;5094537;28;20015;-76
2022/09/18 02:57:03;;;;;;;;;;;;;;;10.31;76.81;95286.94;5094255;28;20473;-77
2022/09/18 02:59:32;;;;;;;;;;;;;;;10.65;77.00;95286.47;5098946;28;20008;-77
2022/09/18 03:01:58;;;;;;;;;;;;;;;9.62;78.22;95297.53;5093626;28;20063;-76
2022/09/18 03:04:25;;;;;;;;;;;;;;;10.05;78.95;95289.31;5108605;28;20052;-77
2022/09/18 03:06:50;;;;;;;;;;;;;;;9.85;77.31;95285.97;5074734;28;20436;-76
2022/09/18 03:09:15;;;;;;;;;;;;;;;10.16;77.56;95282.69;5108377;28;20059;-77
2022/09/18 03:11:41;;;;;;;;;;;;;;;10.31;76.17;95274.44;5094907;28;20388;-76
2022/09/18 03:14:06;;;;;;;;;;;;;;;10.45;76.02;95281.59;5098576;28;20048;-75
2022/09/18 03:16:31;;;;;;;;;;;;;;;10.21;77.33;95292.44;5094677;28;20099;-76
2022/09/18 03:18:58;;;;;;;;;;;;;;;10.60;76.77;95286.59;5094381;28;20012;-75
2022/09/18 03:21:23;;;;;;;;;;;;;;;9.83;76.89;95292.66;5094198;28;20013;-76
2022/09/18 03:23:48;;;;;;;;;;;;;;;9.75;78.28;95296.00;5090894;28;20552;-75
2022/09/18 03:26:14;;;;;;;;;;;;;;;9.99;77.53;95287.84;5074027;28;20103;-76
2022/09/18 03:28:39;;;;;;;;;;;;;;;10.35;77.02;95288.72;5080639;28;20016;-76
2022/09/18 03:31:04;;;;;;;;;;;;;;;10.12;75.60;95289.69;5093857;28;20149;-74
2022/09/18 03:33:30;;;;;;;;;;;;;;;10.06;76.47;95290.88;5094210;28;20107;-75
2022/09/18 03:35:55;;;;;;;;;;;;;;;10.26;76.36;95289.72;5093482;28;20021;-75
2022/09/18 03:38:20;;;;;;;;;;;;;;;9.82;78.71;95289.19;5092057;28;20396;-75
2022/09/18 03:40:45;;;;;;;;;;;;;;;10.45;76.58;95290.38;5094162;28;20012;-75
2022/09/18 03:43:11;;;;;;;;;;;;;;;10.49;75.47;95287.88;5092782;28;20015;-76
2022/09/18 03:45:36;;;;;;;;;;;;;;;10.63;75.58;95291.31;5092630;28;20020;-76
2022/09/18 03:48:02;;;;;;;;;;;;;;;10.30;76.17;95290.69;5093489;28;20015;-76
2022/09/18 03:50:27;;;;;;;;;;;;;;;10.27;76.62;95297.38;5092987;28;20012;-77
2022/09/18 03:52:52;;;;;;;;;;;;;;;10.00;77.28;95306.13;5093645;28;20099;-76
2022/09/18 03:55:18;;;;;;;;;;;;;;;10.72;76.19;95294.03;5094088;28;20009;-77
2022/09/18 03:57:44;;;;;;;;;;;;;;;10.50;75.14;95294.78;5089974;28;20016;-75
2022/09/18 04:00:10;;;;;;;;;;;;;;;10.30;76.84;95299.44;5092057;28;20012;-74
2022/09/18 04:02:35;;;;;;;;;;;;;;;10.16;75.77;95291.44;5111844;28;20005;-75
2022/09/18 04:05:01;;;;;;;;;;;;;;;10.40;76.37;95293.13;5111830;28;20073;-75
2022/09/18 04:07:26;;;;;;;;;;;;;;;10.64;76.67;95300.84;5093138;28;20473;-75
2022/09/18 04:09:51;;;;;;;;;;;;;;;11.10;75.36;95286.50;5092149;28;20016;-75
2022/09/18 04:12:17;;;;;;;;;;;;;;;10.41;75.53;95292.03;5091126;28;20016;-75
2022/09/18 04:14:42;;;;;;;;;;;;;;;10.04;76.94;95298.38;5083323;28;20019;-75
2022/09/18 04:17:07;;;;;;;;;;;;;;;10.18;76.89;95293.81;5111122;28;20012;-75
2022/09/18 04:19:33;;;;;;;;;;;;;;;9.91;77.03;95299.94;5092327;28;20161;-74
2022/09/18 04:21:58;;;;;;;;;;;;;;;9.73;77.55;95304.25;5110765;28;20043;-75
2022/09/18 04:24:23;;;;;;;;;;;;;;;10.22;76.89;95289.47;5092242;28;20015;-75
2022/09/18 04:26:48;;;;;;;;;;;;;;;10.46;77.05;95291.94;5093155;28;20016;-74
2022/09/18 04:29:14;;;;;;;;;;;;;;;9.77;77.09;95288.50;5091606;28;20468;-74
2022/09/18 04:31:39;;;;;;;;;;;;;;;9.96;77.17;95299.03;5088934;28;20467;-74
2022/09/18 04:34:04;;;;;;;;;;;;;;;9.79;78.82;95295.13;5088236;28;20009;-75
2022/09/18 04:36:30;;;;;;;;;;;;;;;10.39;76.50;95299.53;5072832;28;20677;-75
2022/09/18 04:38:55;;;;;;;;;;;;;;;10.09;76.95;95303.59;5076603;28;20492;-75
2022/09/18 04:41:20;;;;;;;;;;;;;;;9.99;77.86;95301.91;5093034;28;20005;-75
2022/09/18 04:43:45;;;;;;;;;;;;;;;9.76;78.16;95313.50;5092077;28;20060;-75
2022/09/18 04:46:11;;;;;;;;;;;;;;;10.11;76.94;95298.75;5089976;28;20111;-75
2022/09/18 04:48:36;;;;;;;;;;;;;;;9.93;78.35;95304.94;5091204;28;20103;-74
2022/09/18 04:51:01;;;;;;;;;;;;;;;9.99;77.00;95303.78;5091475;28;20438;-75
2022/09/18 04:53:27;;;;;;;;;;;;;;;10.36;76.99;95300.13;5111112;28;20471;-74
2022/09/18 04:55:52;;;;;;;;;;;;;;;10.33;75.37;95303.38;5091515;28;20019;-74
2022/09/18 04:58:19;;;;;;;;;;;;;;;9.96;76.82;95297.16;5091670;28;20016;-75
2022/09/18 05:00:47;;;;;;;;;;;;;;;9.84;78.24;95300.34;5091202;28;20376;-75
2022/09/18 05:03:12;;;;;;;;;;;;;;;9.79;76.89;95302.28;5091831;28;20422;-74
2022/09/18 05:05:37;;;;;;;;;;;;;;;9.96;76.37;95307.81;5114848;28;20004;-75
2022/09/18 05:08:03;;;;;;;;;;;;;;;9.87;76.05;95312.22;5095490;28;20063;-76
2022/09/18 05:10:29;;;;;;;;;;;;;;;10.16;76.22;95319.91;5111340;28;20060;-76
2022/09/18 05:12:54;;;;;;;;;;;;;;;10.20;76.19;95315.59;5075988;28;20021;-74
2022/09/18 05:15:20;;;;;;;;;;;;;;;10.22;75.73;95321.38;5088943;28;20428;-76
2022/09/18 05:17:45;;;;;;;;;;;;;;;9.88;76.19;95330.53;5096618;28;20008;-75
2022/09/18 05:20:11;;;;;;;;;;;;;;;9.81;76.21;95327.47;5095287;28;20507;-76
2022/09/18 05:22:36;;;;;;;;;;;;;;;9.85;77.06;95328.47;5095982;28;20013;-74
2022/09/18 05:25:02;;;;;;;;;;;;;;;10.18;75.93;95320.38;5095985;28;20017;-75
2022/09/18 05:27:28;;;;;;;;;;;;;;;10.12;74.27;95329.56;5114805;28;20039;-77
2022/09/18 05:29:53;;;;;;;;;;;;;;;10.14;74.85;95325.53;5093942;28;20012;-72
2022/09/18 05:32:19;;;;;;;;;;;;;;;10.22;73.56;95329.34;5112282;28;20073;-71
2022/09/18 05:34:50;;;;;;;;;;;;;;;10.73;74.27;95330.19;5113124;28;20044;-75
2022/09/18 05:37:16;;;;;;;;;;;;;;;10.24;73.34;95323.78;5095221;28;20091;-72
2022/09/18 05:39:42;;;;;;;;;;;;;;;10.13;73.37;95326.63;5092266;28;20123;-76
2022/09/18 05:42:07;;;;;;;;;;;;;;;10.33;73.88;95329.97;5093956;28;20062;-77
2022/09/18 05:44:32;;;;;;;;;;;;;;;10.84;73.50;95326.22;5113838;28;20171;-77
2022/09/18 05:46:57;;;;;;;;;;;;;;;10.35;74.03;95328.59;5114791;28;20375;-76
2022/09/18 05:49:23;;;;;;;;;;;;;;;11.04;70.83;95324.97;5105839;28;20512;-75
2022/09/18 05:51:48;;;;;;;;;;;;;;;10.72;72.39;95328.63;5098878;28;20017;-73
2022/09/18 05:54:14;;;;;;;;;;;;;;;10.58;72.65;95334.75;5111922;28;20015;-76
2022/09/18 05:56:39;;;;;;;;;;;;;;;11.06;70.56;95326.25;5112853;28;20013;-71
2022/09/18 05:59:05;;;;;;;;;;;;;;;11.05;70.65;95339.84;5112008;28;20020;-71
2022/09/18 06:01:30;;;;;;;;;;;;;;;11.17;71.57;95340.91;5110865;28;20012;-72
2022/09/18 06:03:55;;;;;;;;;;;;;;;11.31;71.73;95330.19;5112676;28;20101;-74
2022/09/18 06:06:21;;;;;;;;;;;;;;;10.56;72.05;95328.16;5111400;28;20070;-78
2022/09/18 06:08:46;;;;;;;;;;;;;;;10.36;73.02;95324.84;5094680;28;20013;-71
2022/09/18 06:11:11;;;;;;;;;;;;;;;10.83;73.08;95336.06;5086954;28;20354;-76
2022/09/18 06:13:36;;;;;;;;;;;;;;;10.79;72.16;95329.78;5094309;28;20061;-72
2022/09/18 06:16:02;;;;;;;;;;;;;;;11.00;69.60;95340.75;5106763;28;20013;-71
2022/09/18 06:18:27;;;;;;;;;;;;;;;10.83;70.90;95337.94;5117207;28;20005;-72
2022/09/18 06:20:54;;;;;;;;;;;;;;;10.85;71.75;95336.59;5097102;28;20008;-71
2022/09/18 06:23:21;;;;;;;;;;;;;;;10.89;71.19;95344.72;5115349;28;20013;-71
2022/09/18 06:25:47;;;;;;;;;;;;;;;10.70;71.35;95344.91;5097253;28;20577;-71
2022/09/18 06:28:12;;;;;;;;;;;;;;;10.91;70.54;95348.69;5114926;28;20020;-70
2022/09/18 06:30:37;;;;;;;;;;;;;;;10.82;71.19;95345.16;5109694;28;20020;-70
2022/09/18 06:33:04;;;;;;;;;;;;;;;10.86;71.52;95338.16;5100211;28;20021;-70
2022/09/18 06:35:31;;;;;;;;;;;;;;;11.07;70.58;95341.13;5096302;28;20377;-71
2022/09/18 06:37:58;;;;;;;;;;;;;;;11.41;68.84;95337.13;5114498;28;20016;-70
2022/09/18 06:40:24;;;;;;;;;;;;;;;11.06;69.93;95347.56;5115495;28;20015;-70
2022/09/18 06:42:53;;;;;;;;;;;;;;;11.12;71.17;95351.66;5112184;28;20087;-71
2022/09/18 06:45:18;;;;;;;;;;;;;;;11.08;70.33;95347.25;5091226;28;20016;-71
2022/09/18 06:47:43;;;;;;;;;;;;;;;10.55;72.26;95347.88;5113216;28;20039;-71
2022/09/18 06:50:09;;;;;;;;;;;;;;;10.61;73.06;95347.47;5106150;28;20027;-70
2022/09/18 06:52:35;;;;;;;;;;;;;;;10.97;71.40;95360.00;5073926;28;20433;-70
2022/09/18 06:55:00;;;;;;;;;;;;;;;10.72;71.79;95350.69;5085189;28;20120;-70
2022/09/18 06:57:25;;;;;;;;;;;;;;;11.23;70.43;95349.56;5112257;28;20199;-70
2022/09/18 06:59:50;;;;;;;;;;;;;;;10.09;74.76;95359.41;5092388;28;20009;-70
2022/09/18 07:02:16;;;;;;;;;;;;;;;10.69;73.48;95356.59;5109620;28;20051;-72
2022/09/18 07:04:41;;;;;;;;;;;;;;;10.56;72.95;95357.44;5111262;28;20009;-69
2022/09/18 07:07:07;;;;;;;;;;;;;;;10.52;73.95;95351.91;5091644;28;20034;-71
2022/09/18 07:09:33;;;;;;;;;;;;;;;10.70;73.03;95354.72;5111211;28;20012;-69
2022/09/18 07:11:58;;;;;;;;;;;;;;;11.08;71.26;95353.34;5110840;28;20059;-71
2022/09/18 07:14:24;;;;;;;;;;;;;;;11.00;73.22;95367.38;5110622;28;20048;-71
2022/09/18 07:16:49;;;;;;;;;;;;;;;11.09;71.77;95354.13;5109779;28;20013;-70
2022/09/18 07:19:15;;;;;;;;;;;;;;;11.71;73.16;95348.91;5108903;28;20013;-72
2022/09/18 07:21:40;;;;;;;;;;;;;;;11.78;70.15;95353.81;5109027;28;20017;-72
2022/09/18 07:24:05;;;;;;;;;;;;;;;12.04;70.84;95360.09;5097859;28;20499;-71
2022/09/18 07:26:31;;;;;;;;;;;;;;;12.00;70.30;95361.00;5101163;28;20419;-70
2022/09/18 07:28:56;;;;;;;;;;;;;;;12.20;71.02;95365.78;5106360;28;20017;-71
2022/09/18 07:31:22;;;;;;;;;;;;;;;11.95;69.18;95372.59;5088561;28;20023;-71
2022/09/18 07:33:51;;;;;;;;;;;;;;;11.98;70.20;95371.97;5112114;28;20011;-71
2022/09/18 07:36:16;;;;;;;;;;;;;;;11.51;70.44;95365.41;5110386;28;20504;-72
2022/09/18 07:38:42;;;;;;;;;;;;;;;11.69;69.94;95367.88;5103537;28;20051;-72
2022/09/18 07:41:07;;;;;;;;;;;;;;;11.50;70.08;95372.59;5110405;28;20048;-73
2022/09/18 07:43:32;;;;;;;;;;;;;;;10.46;73.78;95376.25;5094340;27;20012;-73
2022/09/18 07:45:58;;;;;;;;;;;;;;;11.34;72.88;95382.84;5089324;28;20525;-73
2022/09/18 07:48:23;;;;;;;;;;;;;;;11.36;72.58;95382.53;5108294;28;20012;-72
2022/09/18 07:50:48;;;;;;;;;;;;;;;11.50;70.56;95374.47;5086118;28;20115;-72
2022/09/18 07:53:13;;;;;;;;;;;;;;;11.12;72.20;95372.19;5104579;28;20024;-73
2022/09/18 07:55:41;;;;;;;;;;;;;;;11.56;73.33;95374.03;5087969;28;20009;-73
2022/09/18 07:58:06;;;;;;;;;;;;;;;10.83;73.10;95377.88;5107460;28;20036;-74
2022/09/18 08:00:33;;;;;;;;;;;;;;;10.54;75.30;95373.66;5104136;28;20434;-72
2022/09/18 08:03:06;;;;;;;;;;;;;;;10.62;74.46;95383.63;5101644;28;20023;-70
2022/09/18 08:05:32;;;;;;;;;;;;;;;11.04;73.50;95378.22;5109340;28;20055;-72
2022/09/18 08:08:03;;;;;;;;;;;;;;;11.50;73.24;95379.81;5091996;28;20526;-73
2022/09/18 08:10:29;;;;;;;;;;;;;;;11.67;72.48;95374.59;5094999;28;20054;-72
2022/09/18 08:12:54;;;;;;;;;;;;;;;11.83;71.01;95378.50;5108159;27;20016;-69
2022/09/18 08:15:20;;;;;;;;;;;;;;;11.02;72.62;95378.50;5087289;28;20095;-71
2022/09/18 08:17:45;;;;;;;;;;;;;;;11.12;72.07;95380.94;5107865;28;20013;-71
2022/09/18 08:20:11;;;;;;;;;;;;;;;11.23;73.58;95378.84;5085671;28;20009;-72
2022/09/18 08:22:37;;;;;;;;;;;;;;;11.00;73.31;95387.88;5104704;28;20012;-72
2022/09/18 08:25:02;;;;;;;;;;;;;;;11.42;72.81;95379.47;5090845;28;20015;-72
2022/09/18 08:27:27;;;;;;;;;;;;;;;11.51;72.24;95382.16;5107093;28;20062;-71
2022/09/18 08:29:52;;;;;;;;;;;;;;;11.28;72.33;95388.59;5105210;28;20063;-72
2022/09/18 08:32:18;;;;;;;;;;;;;;;12.35;69.56;95375.25;5087027;28;20023;-72
2022/09/18 08:34:43;;;;;;;;;;;;;;;11.63;69.77;95389.63;5106362;28;20013;-71
2022/09/18 08:37:09;;;;;;;;;;;;;;;12.63;68.84;95373.91;5109318;28;20008;-71
2022/09/18 08:39:34;;;;;;;;;;;;;;;12.09;68.87;95369.84;5091178;28;20013;-71
2022/09/18 08:42:02;;;;;;;;;;;;;;;12.49;67.86;95367.94;5088493;28;20016;-71
2022/09/18 08:44:29;;;;;;;;;;;;;;;12.32;68.72;95387.31;5105463;28;20475;-72
2022/09/18 08:47:14;;;;;;;;;;;;;;;11.95;69.25;95373.38;5087943;28;20047;-71
2022/09/18 08:49:46;;;;;;;;;;;;;;;12.08;68.67;95379.72;5095149;28;20020;-72
2022/09/18 08:52:16;;;;;;;;;;;;;;;12.31;68.46;95372.41;5097796;28;20048;-71
2022/09/18 08:54:45;;;;;;;;;;;;;;;12.50;67.68;95380.19;5090640;28;20380;-72
2022/09/18 08:57:13;;;;;;;;;;;;;;;12.12;70.08;95385.19;5086478;28;20490;-71
2022/09/18 08:59:42;;;;;;;;;;;;;;;12.60;66.80;95379.09;5105299;28;20535;-69
2022/09/18 09:02:13;;;;;;;;;;;;;;;13.41;65.23;95384.72;5085767;28;20011;-70
2022/09/18 09:04:39;;;;;;;;;;;;;;;12.23;66.91;95389.16;5105235;28;20056;-69
2022/09/18 09:07:04;;;;;;;;;;;;;;;12.11;67.17;95388.97;5106086;28;20044;-70
2022/09/18 09:09:29;;;;;;;;;;;;;;;12.56;65.69;95384.28;5085712;28;20020;-69
2022/09/18 09:12:13;;;;;;;;;;;;;;;13.02;65.43;95386.38;5100746;28;20103;-69
2022/09/18 09:14:41;;;;;;;;;;;;;;;13.53;62.28;95389.41;5106510;28;20013;-70
2022/09/18 09:17:19;;;;;;;;;;;;;;;13.17;64.27;95390.50;5088837;28;20017;-69
2022/09/18 09:19:44;;;;;;;;;;;;;;;12.46;65.14;95385.34;5109172;28;20016;-69
2022/09/18 09:22:15;;;;;;;;;;;;;;;12.87;64.83;95373.50;5108542;28;20073;-70
2022/09/18 09:25:00;;;;;;;;;;;;;;;12.63;64.89;95373.91;5084737;28;20017;-70
2022/09/18 09:27:30;;;;;;;;;;;;;;;12.98;63.42;95371.31;5107531;28;20019;-70
2022/09/18 09:30:00;;;;;;;;;;;;;;;12.56;64.40;95380.81;5109506;28;20009;-69
2022/09/18 09:32:35;;;;;;;;;;;;;;;12.65;64.32;95378.97;5105792;28;20414;-68
2022/09/18 09:35:02;;;;;;;;;;;;;;;12.47;65.68;95375.44;5110079;28;20008;-70
2022/09/18 09:37:35;;;;;;;;;;;;;;;13.04;64.68;95374.59;5109114;28;20059;-72
2022/09/18 09:40:07;;;;;;;;;;;;;;;12.77;64.88;95373.78;5106869;28;20012;-72
2022/09/18 09:42:32;;;;;;;;;;;;;;;13.38;62.99;95369.31;5089755;28;20047;-74
2022/09/18 09:45:08;;;;;;;;;;;;;;;12.86;62.52;95385.28;5089838;28;20531;-69
2022/09/18 09:47:41;;;;;;;;;;;;;;;13.11;63.04;95381.06;5089115;28;20103;-71
2022/09/18 09:50:18;;;;;;;;;;;;;;;13.16;62.08;95374.78;5107614;28;20062;-71
2022/09/18 09:52:48;;;;;;;;;;;;;;;13.93;61.72;95375.81;5112005;28;20555;-71
2022/09/18 09:55:13;;;;;;;;;;;;;;;12.62;63.31;95374.22;5111642;28;20421;-71
2022/09/18 09:57:57;;;;;;;;;;;;;;;12.80;61.76;95381.19;5090917;28;20111;-70
2022/09/18 10:00:22;;;;;;;;;;;;;;;13.29;61.65;95384.53;5109989;28;20016;-72
2022/09/18 10:02:50;;;;;;;;;;;;;;;13.09;61.42;95375.22;5109247;28;20012;-72
2022/09/18 10:05:23;;;;;;;;;;;;;;;13.37;63.15;95381.09;5112156;28;20012;-73
2022/09/18 10:08:02;;;;;;;;;;;;;;;13.65;63.01;95378.84;5110311;28;20149;-71
2022/09/18 10:10:39;;;;;;;;;;;;;;;13.41;61.60;95376.69;5110416;28;20016;-73
2022/09/18 10:13:13;;;;;;;;;;;;;;;13.31;61.83;95374.34;5092908;28;20023;-69
2022/09/18 10:15:51;;;;;;;;;;;;;;;13.38;61.94;95381.88;5110756;28;20007;-70
2022/09/18 10:18:22;;;;;;;;;;;;;;;12.86;62.77;95382.59;5098204;28;20008;-68
2022/09/18 10:20:49;;;;;;;;;;;;;;;13.24;61.02;95384.69;5112744;28;20020;-71
2022/09/18 10:23:24;;;;;;;;;;;;;;;12.64;63.05;95380.03;5109451;28;20066;-70
2022/09/18 10:25:53;;;;;;;;;;;;;;;13.11;63.01;95373.06;5114907;28;20012;-69
2022/09/18 10:28:20;;;;;;;;;;;;;;;13.09;62.47;95383.25;5080440;28;20016;-69
2022/09/18 10:30:59;;;;;;;;;;;;;;;13.45;62.09;95385.63;5109520;28;20009;-69
2022/09/18 10:33:41;;;;;;;;;;;;;;;13.10;61.21;95381.34;5108363;28;20066;-70
2022/09/18 10:36:18;;;;;;;;;;;;;;;13.23;61.76;95383.13;5093902;28;20098;-69
2022/09/18 10:38:44;;;;;;;;;;;;;;;12.81;62.36;95393.44;5111267;28;20702;-69
2022/09/18 10:41:18;;;;;;;;;;;;;;;13.95;60.42;95384.31;5092487;28;20016;-71
2022/09/18 10:44:16;;;;;;;;;;;;;;;13.55;61.60;95379.19;5111231;28;20016;-70
2022/09/18 10:46:50;;;;;;;;;;;;;;;14.01;60.29;95383.81;5064314;28;20017;-70
2022/09/18 10:49:18;;;;;;;;;;;;;;;13.66;59.54;95385.75;5094465;28;20007;-70
2022/09/18 10:51:43;;;;;;;;;;;;;;;13.84;61.55;95377.72;5092233;28;20060;-71
2022/09/18 10:54:21;;;;;;;;;;;;;;;13.43;60.75;95379.81;5076001;28;20009;-70
2022/09/18 10:56:47;;;;;;;;;;;;;;;14.24;58.11;95375.56;5091164;28;20017;-71
2022/09/18 10:59:32;;;;;;;;;;;;;;;13.26;60.73;95385.19;5110070;28;20035;-70
2022/09/18 11:01:59;;;;;;;;;;;;;;;14.22;58.90;95375.06;5104247;28;20424;-72
2022/09/18 11:04:26;;;;;;;;;;;;;;;13.98;59.39;95373.75;5093291;28;20008;-72
2022/09/18 11:06:52;;;;;;;;;;;;;;;13.78;60.40;95375.22;5111614;28;20013;-71
2022/09/18 11:09:19;;;;;;;;;;;;;;;13.73;60.34;95372.72;5104771;28;20015;-71
2022/09/18 11:11:50;;;;;;;;;;;;;;;14.45;59.29;95370.28;5090455;28;20017;-72
2022/09/18 11:14:15;;;;;;;;;;;;;;;14.86;60.46;95360.78;5091266;28;20020;-71
2022/09/18 11:16:46;;;;;;;;;;;;;;;13.11;62.69;95373.06;5104040;28;20009;-69
2022/09/18 11:19:21;;;;;;;;;;;;;;;13.94;62.17;95372.03;5094265;28;20008;-70
2022/09/18 11:21:51;;;;;;;;;;;;;;;13.86;62.25;95378.97;5093173;28;20008;-70
2022/09/18 11:24:19;;;;;;;;;;;;;;;13.15;63.58;95357.94;5111601;28;20107;-70
2022/09/18 11:26:49;;;;;;;;;;;;;;;13.91;62.00;95370.78;5093245;28;20539;-70
2022/09/18 11:29:21;;;;;;;;;;;;;;;14.31;63.28;95373.16;5103969;28;20034;-71
2022/09/18 11:32:10;;;;;;;;;;;;;;;14.07;62.56;95370.25;5104050;28;20496;-71
2022/09/18 11:34:43;;;;;;;;;;;;;;;14.02;61.55;95353.31;5092366;28;20424;-69
2022/09/18 11:37:11;;;;;;;;;;;;;;;14.74;58.85;95346.22;5082286;28;20066;-70
2022/09/18 11:39:39;;;;;;;;;;;;;;;14.64;59.44;95351.13;5106104;28;20012;-70
2022/09/18 11:42:09;;;;;;;;;;;;;;;14.63;58.30;95354.91;5109875;28;20530;-70
2022/09/18 11:44:35;;;;;;;;;;;;;;;14.54;58.69;95350.41;5109802;28;20056;-69
2022/09/18 11:47:15;;;;;;;;;;;;;;;15.31;58.64;95353.66;5092184;28;20484;-70
2022/09/18 11:49:46;;;;;;;;;;;;;;;15.31;59.22;95336.81;5108666;28;20017;-70
2022/09/18 11:52:16;;;;;;;;;;;;;;;14.91;58.48;95339.94;5109612;28;20016;-70
2022/09/18 11:54:45;;;;;;;;;;;;;;;15.74;55.72;95328.34;5092920;28;20013;-70
2022/09/18 11:57:20;;;;;;;;;;;;;;;15.76;54.61;95344.09;5111843;27;20053;-68
2022/09/18 11:59:49;;;;;;;;;;;;;;;14.35;58.15;95352.69;5089193;28;20022;-69
2022/09/18 12:02:14;;;;;;;;;;;;;;;13.81;62.63;95356.97;5108441;28;20069;-71
2022/09/18 12:04:48;;;;;;;;;;;;;;;14.18;63.37;95350.09;5109769;28;20404;-69
2022/09/18 12:07:22;;;;;;;;;;;;;;;13.05;67.01;95352.13;5110799;28;20016;-71
2022/09/18 12:09:47;;;;;;;;;;;;;;;12.38;69.61;95361.28;5108456;28;20511;-67
2022/09/18 12:12:18;;;;;;;;;;;;;;;12.83;69.32;95369.88;5110684;28;20009;-69
2022/09/18 12:14:46;;;;;;;;;;;;;;;12.48;69.30;95364.47;5108388;28;20492;-69
2022/09/18 12:17:27;;;;;;;;;;;;;;;12.30;71.74;95362.06;5091733;28;20377;-68
2022/09/18 12:20:00;;;;;;;;;;;;;;;12.47;71.94;95354.09;5090049;28;20396;-68
2022/09/18 12:22:35;;;;;;;;;;;;;;;12.54;72.92;95353.63;5092443;28;20009;-67
2022/09/18 12:25:10;;;;;;;;;;;;;;;12.54;71.00;95358.97;5109502;28;20467;-69
2022/09/18 12:27:38;;;;;;;;;;;;;;;12.77;70.74;95344.44;5108590;28;20095;-69
2022/09/18 12:30:07;;;;;;;;;;;;;;;13.44;69.17;95357.34;5089046;28;20008;-69
2022/09/18 12:32:55;;;;;;;;;;;;;;;13.24;70.49;95355.31;5109741;28;20100;-68
2022/09/18 12:35:26;;;;;;;;;;;;;;;12.86;69.96;95347.91;5081598;28;20009;-69
2022/09/18 12:37:58;;;;;;;;;;;;;;;13.15;68.42;95346.47;5105013;28;20013;-69
2022/09/18 12:40:41;;;;;;;;;;;;;;;13.30;69.15;95338.03;5107069;28;20009;-69
2022/09/18 12:43:09;;;;;;;;;;;;;;;12.83;69.48;95345.06;5110483;28;20008;-69
2022/09/18 12:45:49;;;;;;;;;;;;;;;13.01;69.59;95349.34;5107695;28;20009;-69
2022/09/18 12:48:24;;;;;;;;;;;;;;;13.48;68.72;95346.81;5108449;28;20057;-69
2022/09/18 12:50:52;;;;;;;;;;;;;;;12.43;70.57;95343.25;5084752;22;20020;-64
2022/09/18 12:53:38;;;;;;;;;;;;;;;12.86;69.18;95349.78;5060963;28;20014;-65
2022/09/18 12:56:21;;;;;;;;;;;;;;;12.88;68.66;95353.72;5065532;28;20035;-65